WetterOnline ( https://www.wetteronline.de )

Wetter aktuell Warschau

Aktuelles Wetter: Warschau - Okecie (106m)

6-stündlich | Neueste Meldungen
Ortszeit Temperatur Wetter
Sa, 14.12. 13:00 5.3° C bewölkt
Sa, 14.12. 7:00 2.0° C wolkig
Sa, 14.12. 1:00 3.5° C leicht bewölkt
Fr, 13.12. 19:00 2.7° C bewölkt
Fr, 13.12. 13:00 2.4° C leichter Regen
Fr, 13.12. 7:00 2.3° C leichter Regen
Fr, 13.12. 1:00 1.5° C bedeckt
Do, 12.12. 19:00 -0.2° C leicht bewölkt
Ortszeit Temperatur Wetter
Sa, 14.12. 15:00 4.5° C wolkig
Sa, 14.12. 14:30 5° C bewölkt
Sa, 14.12. 14:00 5.2° C leicht bewölkt
Sa, 14.12. 13:30 6° C leicht bewölkt
Sa, 14.12. 13:00 5.3° C bewölkt
Sa, 14.12. 12:30 5° C bewölkt
Sa, 14.12. 12:00 4.8° C bewölkt, nach Regen
Sa, 14.12. 11:30 5° C leichter Regen
Ortszeit Relative Feuchte Sichtweite
Sa, 14.12. 13:00 85% 23 km
Sa, 14.12. 7:00 91% 12 km
Sa, 14.12. 1:00 86% 21 km
Fr, 13.12. 19:00 88% 20 km
Fr, 13.12. 13:00 89% 14 km
Fr, 13.12. 7:00 91% 10 km
Fr, 13.12. 1:00 92% 6 km
Do, 12.12. 19:00 85% 10 km
Ortszeit Relative Feuchte Sichtweite
Sa, 14.12. 15:00 86% 18 km
Sa, 14.12. 14:30 87% >10 km
Sa, 14.12. 14:00 83% 22 km
Sa, 14.12. 13:30 81% >10 km
Sa, 14.12. 13:00 85% 23 km
Sa, 14.12. 12:30 93% >10 km
Sa, 14.12. 12:00 87% 17 km
Sa, 14.12. 11:30 87% >10 km
Ortszeit Niederschlagsmenge Niederschlagsart
Sa, 14.12. 13:00 0.1 l/m2 in 6 Std. Regen
Sa, 14.12. 7:00 0.1 l/m2 in 12 Std. -
Sa, 14.12. 1:00 0.1 l/m2 in 6 Std. Regen
Fr, 13.12. 19:00 0.2 l/m2 in 12 Std. Regen
Fr, 13.12. 13:00 0.2 l/m2 in 6 Std. Regen
Fr, 13.12. 7:00 0.1 l/m2 in 12 Std. Regen
Fr, 13.12. 1:00 0.0 l/m2 in 6 Std. -
Do, 12.12. 19:00 0.0 l/m2 in 12 Std. -
Ortszeit Niederschlagsmenge Niederschlagsart
Sa, 14.12. 15:00 keine Meldung -
Sa, 14.12. 14:30 keine Meldung -
Sa, 14.12. 14:00 keine Meldung -
Sa, 14.12. 13:30 keine Meldung -
Sa, 14.12. 13:00 keine Meldung -
Sa, 14.12. 12:30 keine Meldung -
Sa, 14.12. 12:00 keine Meldung -
Sa, 14.12. 11:30 keine Meldung -
Ortszeit Stärke Spitze Richtung
km/h Bft. km/h Grad Sektor
Sa, 14.12. 13:00 18 3 - 150° SO
Sa, 14.12. 7:00 14 3 - 130° SO
Sa, 14.12. 1:00 14 3 - 130° SO
Fr, 13.12. 19:00 18 3 - 130° SO
Fr, 13.12. 13:00 32 5 50 110° O
Fr, 13.12. 7:00 22 4 - 110° O
Fr, 13.12. 1:00 14 3 - 110° O
Do, 12.12. 19:00 7 2 - 130° SO
Ortszeit Stärke Spitze Richtung
km/h Bft. km/h Grad Sektor
Sa, 14.12. 15:00 11 2 - 150° SO
Sa, 14.12. 14:30 19 3 - 150° SO
Sa, 14.12. 14:00 14 3 32 140° SO
Sa, 14.12. 13:30 20 4 - 160° S
Sa, 14.12. 13:00 18 3 - 150° SO
Sa, 14.12. 12:30 22 4 - 160° S
Sa, 14.12. 12:00 14 3 - 140° SO
Sa, 14.12. 11:30 20 4 - 150° SO
Ortszeit Untergrenze Bedeckung Gattung
total tief tief mittel hoch
Sa, 14.12. 13:00 360 m 7/8 7/8 Sc - -
Sa, 14.12. 7:00 - 7/8 3/8 - Ac Cs
Sa, 14.12. 1:00 - 3/8 1/8 Sc - Ci
Fr, 13.12. 19:00 - 7/8 7/8 Sc - -
Fr, 13.12. 13:00 300 m 8/8 7/8 Sc Ns -
Fr, 13.12. 7:00 240 m 8/8 7/8 St Ns -
Fr, 13.12. 1:00 210 m 8/8 7/8 Sc - -
Do, 12.12. 19:00 - 5/8 5/8 - Ac -
Ortszeit Bedeckungsgrad in Achtel und Wolkenuntergrenze
Sa, 14.12. 15:00 4(360m)
Sa, 14.12. 14:30 5-7(390m)
Sa, 14.12. 14:00 3(390m)
Sa, 14.12. 13:30 1-2(390m) 3-4(1080m)
Sa, 14.12. 13:00 3(360m)
Sa, 14.12. 12:30 1-2(360m) 5-7(900m)
Sa, 14.12. 12:00 2(360m)
Sa, 14.12. 11:30 1-2(360m)
Ortszeit Luftdruck NN (hPa) Tendenz (hPa in 3 Std.)
Sa, 14.12. 13:00 995 - 0,7
Sa, 14.12. 7:00 994 + 0,5
Sa, 14.12. 1:00 994 + 0,7
Fr, 13.12. 19:00 992 + 0,5
Fr, 13.12. 13:00 993 - 2,8
Fr, 13.12. 7:00 997 - 2,6
Fr, 13.12. 1:00 1003 - 2,5
Do, 12.12. 19:00 1007 - 0,8
Ortszeit Luftdruck NN (hPa) Tendenz (hPa in 3 Std.)
Sa, 14.12. 15:00 995 + 0,2
Sa, 14.12. 14:30 994 keine Meldung
Sa, 14.12. 14:00 995 - 0,4
Sa, 14.12. 13:30 994 keine Meldung
Sa, 14.12. 13:00 995 - 0,7
Sa, 14.12. 12:30 993 keine Meldung
Sa, 14.12. 12:00 995 - 0,5
Sa, 14.12. 11:30 994 keine Meldung
Ortszeit Schneehöhe (cm)
Sa, 14.12. 13:00 -
Sa, 14.12. 7:00 -
Sa, 14.12. 1:00 -
Fr, 13.12. 19:00 -
Fr, 13.12. 13:00 -
Fr, 13.12. 7:00 -
Fr, 13.12. 1:00 -
Do, 12.12. 19:00 -
Ortszeit Schneehöhe (cm)
Sa, 14.12. 15:00 -
Sa, 14.12. 14:30 -
Sa, 14.12. 14:00 -
Sa, 14.12. 13:30 -
Sa, 14.12. 13:00 -
Sa, 14.12. 12:30 -
Sa, 14.12. 12:00 -
Sa, 14.12. 11:30 -
Link zu dieser Seite / Seite empfehlen

Das Wetter in ...